sensor_id;sensor_type;location;lat;lon;timestamp;pressure;altitude;pressure_sealevel;temperature;humidity
76998;BME280;65930;48.874;10.734;2023-03-26T00:01:44;95534.28;;;6.77;75.91
76998;BME280;65930;48.874;10.734;2023-03-26T00:04:15;95532.31;;;6.78;76.08
76998;BME280;65930;48.874;10.734;2023-03-26T00:06:47;95526.44;;;6.79;75.94
76998;BME280;65930;48.874;10.734;2023-03-26T00:09:16;95535.44;;;6.73;76.06
76998;BME280;65930;48.874;10.734;2023-03-26T00:11:44;95534.66;;;6.72;76.48
76998;BME280;65930;48.874;10.734;2023-03-26T00:14:14;95537.41;;;6.72;76.76
76998;BME280;65930;48.874;10.734;2023-03-26T00:16:43;95557.84;;;6.68;76.93
76998;BME280;65930;48.874;10.734;2023-03-26T00:19:13;95564.50;;;6.59;77.76
76998;BME280;65930;48.874;10.734;2023-03-26T00:21:41;95545.22;;;6.56;77.96
76998;BME280;65930;48.874;10.734;2023-03-26T00:24:11;95530.25;;;6.50;78.46
76998;BME280;65930;48.874;10.734;2023-03-26T00:26:41;95538.88;;;6.45;78.11
76998;BME280;65930;48.874;10.734;2023-03-26T00:29:10;95525.53;;;6.47;78.53
76998;BME280;65930;48.874;10.734;2023-03-26T00:31:40;95520.38;;;6.38;79.25
76998;BME280;65930;48.874;10.734;2023-03-26T00:34:12;95524.72;;;6.43;79.17
76998;BME280;65930;48.874;10.734;2023-03-26T00:36:41;95519.59;;;6.38;79.28
76998;BME280;65930;48.874;10.734;2023-03-26T00:39:09;95518.38;;;6.35;79.68
76998;BME280;65930;48.874;10.734;2023-03-26T00:41:37;95511.28;;;6.31;79.69
76998;BME280;65930;48.874;10.734;2023-03-26T00:44:08;95521.91;;;6.29;79.90
76998;BME280;65930;48.874;10.734;2023-03-26T00:46:37;95502.59;;;6.18;80.92
76998;BME280;65930;48.874;10.734;2023-03-26T00:49:06;95509.69;;;6.19;80.69
76998;BME280;65930;48.874;10.734;2023-03-26T00:51:36;95502.59;;;6.14;80.72
76998;BME280;65930;48.874;10.734;2023-03-26T00:54:05;95502.59;;;6.18;81.05
76998;BME280;65930;48.874;10.734;2023-03-26T00:56:34;95500.22;;;6.16;80.62
76998;BME280;65930;48.874;10.734;2023-03-26T00:59:02;95493.56;;;6.21;80.39
76998;BME280;65930;48.874;10.734;2023-03-26T01:01:30;95497.50;;;6.20;80.80
76998;BME280;65930;48.874;10.734;2023-03-26T01:04:20;95493.97;;;6.23;80.08
76998;BME280;65930;48.874;10.734;2023-03-26T01:06:54;95499.44;;;6.16;80.54
76998;BME280;65930;48.874;10.734;2023-03-26T01:09:30;95501.81;;;6.17;80.73
76998;BME280;65930;48.874;10.734;2023-03-26T01:12:00;95495.50;;;6.13;81.35
76998;BME280;65930;48.874;10.734;2023-03-26T01:14:29;95493.19;;;6.15;81.38
76998;BME280;65930;48.874;10.734;2023-03-26T01:17:00;95495.50;;;6.10;81.44
76998;BME280;65930;48.874;10.734;2023-03-26T01:19:36;95493.50;;;6.07;81.43
76998;BME280;65930;48.874;10.734;2023-03-26T01:22:08;95485.22;;;6.00;81.52
76998;BME280;65930;48.874;10.734;2023-03-26T01:24:40;95489.56;;;6.04;80.87
76998;BME280;65930;48.874;10.734;2023-03-26T01:27:22;95481.31;;;6.04;80.53
76998;BME280;65930;48.874;10.734;2023-03-26T01:29:58;95480.53;;;6.04;80.76
76998;BME280;65930;48.874;10.734;2023-03-26T01:32:47;95479.38;;;6.08;80.16
76998;BME280;65930;48.874;10.734;2023-03-26T01:35:29;95479.00;;;6.06;79.95
76998;BME280;65930;48.874;10.734;2023-03-26T01:38:13;95473.09;;;6.11;80.30
76998;BME280;65930;48.874;10.734;2023-03-26T01:40:55;95478.22;;;6.09;80.25
76998;BME280;65930;48.874;10.734;2023-03-26T01:43:32;95460.13;;;6.08;79.95
76998;BME280;65930;48.874;10.734;2023-03-26T01:46:06;95469.59;;;6.14;79.61
76998;BME280;65930;48.874;10.734;2023-03-26T01:48:38;95464.88;;;6.18;79.77
76998;BME280;65930;48.874;10.734;2023-03-26T01:51:08;95468.81;;;6.14;79.69
76998;BME280;65930;48.874;10.734;2023-03-26T01:53:43;95472.34;;;6.22;79.82
76998;BME280;65930;48.874;10.734;2023-03-26T01:56:18;95460.94;;;6.16;79.69
76998;BME280;65930;48.874;10.734;2023-03-26T01:59:03;95466.06;;;6.17;79.66
76998;BME280;65930;48.874;10.734;2023-03-26T02:01:41;95470.78;;;6.17;79.63
76998;BME280;65930;48.874;10.734;2023-03-26T02:04:21;95454.63;;;6.12;79.83
76998;BME280;65930;48.874;10.734;2023-03-26T02:06:54;95460.94;;;6.12;79.67
76998;BME280;65930;48.874;10.734;2023-03-26T02:09:32;95457.75;;;6.07;80.30
76998;BME280;65930;48.874;10.734;2023-03-26T02:12:05;95457.00;;;6.06;80.01
76998;BME280;65930;48.874;10.734;2023-03-26T02:14:35;95457.78;;;6.10;80.15
76998;BME280;65930;48.874;10.734;2023-03-26T02:17:03;95447.53;;;6.07;80.17
76998;BME280;65930;48.874;10.734;2023-03-26T02:19:31;95448.34;;;6.08;80.06
76998;BME280;65930;48.874;10.734;2023-03-26T02:21:59;95432.19;;;5.99;79.73
76998;BME280;65930;48.874;10.734;2023-03-26T02:24:27;95429.44;;;5.99;79.94
76998;BME280;65930;48.874;10.734;2023-03-26T02:26:55;95417.19;;;5.83;79.99
76998;BME280;65930;48.874;10.734;2023-03-26T02:29:25;95424.69;;;5.89;79.93
76998;BME280;65930;48.874;10.734;2023-03-26T02:31:53;95423.06;;;5.81;79.91
76998;BME280;65930;48.874;10.734;2023-03-26T02:34:21;95416.69;;;5.70;80.71
76998;BME280;65930;48.874;10.734;2023-03-26T02:36:49;95425.75;;;5.74;80.95
76998;BME280;65930;48.874;10.734;2023-03-26T02:39:17;95396.28;;;5.64;80.36
76998;BME280;65930;48.874;10.734;2023-03-26T02:41:45;95415.94;;;5.73;80.93
76998;BME280;65930;48.874;10.734;2023-03-26T02:44:13;95409.69;;;5.76;81.05
76998;BME280;65930;48.874;10.734;2023-03-26T02:46:42;95413.59;;;5.78;80.62
76998;BME280;65930;48.874;10.734;2023-03-26T02:49:10;95416.69;;;5.70;80.46
76998;BME280;65930;48.874;10.734;2023-03-26T02:51:38;95399.03;;;5.71;80.27
76998;BME280;65930;48.874;10.734;2023-03-26T02:54:06;95389.22;;;5.70;80.43
76998;BME280;65930;48.874;10.734;2023-03-26T02:56:35;95384.09;;;5.65;80.62
76998;BME280;65930;48.874;10.734;2023-03-26T02:59:03;95390.03;;;5.74;80.71
76998;BME280;65930;48.874;10.734;2023-03-26T03:01:31;95386.91;;;5.79;80.53
76998;BME280;65930;48.874;10.734;2023-03-26T03:04:02;95382.25;;;5.83;80.18
76998;BME280;65930;48.874;10.734;2023-03-26T03:06:30;95382.25;;;5.83;79.97
76998;BME280;65930;48.874;10.734;2023-03-26T03:08:58;95375.16;;;5.86;79.75
76998;BME280;65930;48.874;10.734;2023-03-26T03:11:28;95378.69;;;5.83;79.54
76998;BME280;65930;48.874;10.734;2023-03-26T03:13:56;95371.28;;;5.90;79.97
76998;BME280;65930;48.874;10.734;2023-03-26T03:16:24;95355.22;;;5.92;79.49
76998;BME280;65930;48.874;10.734;2023-03-26T03:18:53;95359.13;;;5.95;79.33
76998;BME280;65930;48.874;10.734;2023-03-26T03:21:27;95345.41;;;5.98;79.19
76998;BME280;65930;48.874;10.734;2023-03-26T03:23:55;95356.44;;;6.02;79.43
76998;BME280;65930;48.874;10.734;2023-03-26T03:26:26;95367.44;;;6.05;78.89
76998;BME280;65930;48.874;10.734;2023-03-26T03:28:57;95366.59;;;5.94;79.35
76998;BME280;65930;48.874;10.734;2023-03-26T03:31:26;95357.88;;;5.85;79.18
76998;BME280;65930;48.874;10.734;2023-03-26T03:33:54;95338.16;;;5.58;79.63
76998;BME280;65930;48.874;10.734;2023-03-26T03:36:22;95353.06;;;5.61;79.77
76998;BME280;65930;48.874;10.734;2023-03-26T03:38:54;95358.97;;;5.63;79.46
76998;BME280;65930;48.874;10.734;2023-03-26T03:41:27;95352.25;;;5.50;79.96
76998;BME280;65930;48.874;10.734;2023-03-26T03:43:55;95360.94;;;5.62;79.56
76998;BME280;65930;48.874;10.734;2023-03-26T03:46:25;95358.19;;;5.62;80.05
76998;BME280;65930;48.874;10.734;2023-03-26T03:48:53;95347.63;;;5.68;79.22
76998;BME280;65930;48.874;10.734;2023-03-26T03:51:21;95342.06;;;5.61;79.52
76998;BME280;65930;48.874;10.734;2023-03-26T03:53:49;95333.47;;;5.66;79.66
76998;BME280;65930;48.874;10.734;2023-03-26T03:56:19;95326.00;;;5.66;78.98
76998;BME280;65930;48.874;10.734;2023-03-26T03:58:50;95317.78;;;5.70;78.96
76998;BME280;65930;48.874;10.734;2023-03-26T04:01:18;95320.16;;;5.68;79.13
76998;BME280;65930;48.874;10.734;2023-03-26T04:03:48;95329.56;;;5.67;79.26
76998;BME280;65930;48.874;10.734;2023-03-26T04:06:16;95319.34;;;5.67;78.52
76998;BME280;65930;48.874;10.734;2023-03-26T04:08:45;95319.31;;;5.60;78.87
76998;BME280;65930;48.874;10.734;2023-03-26T04:11:13;95334.63;;;5.58;78.97
76998;BME280;65930;48.874;10.734;2023-03-26T04:13:43;95325.59;;;5.61;78.61
76998;BME280;65930;48.874;10.734;2023-03-26T04:16:11;95334.63;;;5.58;79.01
76998;BME280;65930;48.874;10.734;2023-03-26T04:18:39;95318.56;;;5.63;78.86
76998;BME280;65930;48.874;10.734;2023-03-26T04:21:07;95306.00;;;5.66;78.89
76998;BME280;65930;48.874;10.734;2023-03-26T04:23:38;95309.16;;;5.68;78.97
76998;BME280;65930;48.874;10.734;2023-03-26T04:26:07;95301.69;;;5.68;78.67
76998;BME280;65930;48.874;10.734;2023-03-26T04:28:44;95306.38;;;5.61;78.95
76998;BME280;65930;48.874;10.734;2023-03-26T04:31:15;95307.94;;;5.65;78.56
76998;BME280;65930;48.874;10.734;2023-03-26T04:33:46;95298.16;;;5.68;78.93
76998;BME280;65930;48.874;10.734;2023-03-26T04:36:15;95302.06;;;5.67;78.44
76998;BME280;65930;48.874;10.734;2023-03-26T04:38:45;95302.47;;;5.65;78.75
76998;BME280;65930;48.874;10.734;2023-03-26T04:41:15;95299.75;;;5.69;78.42
76998;BME280;65930;48.874;10.734;2023-03-26T04:43:44;95292.66;;;5.64;78.64
76998;BME280;65930;48.874;10.734;2023-03-26T04:46:16;95290.69;;;5.65;78.16
76998;BME280;65930;48.874;10.734;2023-03-26T04:48:47;95287.16;;;5.68;77.87
76998;BME280;65930;48.874;10.734;2023-03-26T04:51:16;95282.84;;;5.74;77.55
76998;BME280;65930;48.874;10.734;2023-03-26T04:53:51;95289.56;;;5.80;77.45
76998;BME280;65930;48.874;10.734;2023-03-26T04:56:32;95271.47;;;5.72;78.06
76998;BME280;65930;48.874;10.734;2023-03-26T04:59:04;95282.06;;;5.66;78.60
76998;BME280;65930;48.874;10.734;2023-03-26T05:01:33;95262.38;;;5.50;79.26
76998;BME280;65930;48.874;10.734;2023-03-26T05:04:03;95252.94;;;5.51;79.26
76998;BME280;65930;48.874;10.734;2023-03-26T05:06:31;95253.38;;;5.57;79.08
76998;BME280;65930;48.874;10.734;2023-03-26T05:09:00;95231.81;;;5.66;78.77
76998;BME280;65930;48.874;10.734;2023-03-26T05:11:28;95216.13;;;5.66;78.04
76998;BME280;65930;48.874;10.734;2023-03-26T05:13:56;95224.78;;;5.72;77.99
76998;BME280;65930;48.874;10.734;2023-03-26T05:16:26;95228.69;;;5.71;77.72
76998;BME280;65930;48.874;10.734;2023-03-26T05:18:54;95229.06;;;5.62;78.67
76998;BME280;65930;48.874;10.734;2023-03-26T05:21:22;95226.34;;;5.73;77.77
76998;BME280;65930;48.874;10.734;2023-03-26T05:23:50;95219.66;;;5.74;77.91
76998;BME280;65930;48.874;10.734;2023-03-26T05:26:19;95203.97;;;5.78;77.58
76998;BME280;65930;48.874;10.734;2023-03-26T05:28:46;95207.50;;;5.78;77.31
76998;BME280;65930;48.874;10.734;2023-03-26T05:31:17;95194.53;;;5.72;77.89
76998;BME280;65930;48.874;10.734;2023-03-26T05:33:48;95199.59;;;5.56;78.36
76998;BME280;65930;48.874;10.734;2023-03-26T05:36:16;95190.16;;;5.46;78.41
76998;BME280;65930;48.874;10.734;2023-03-26T05:38:45;95180.31;;;5.38;78.61
76998;BME280;65930;48.874;10.734;2023-03-26T05:41:16;95186.59;;;5.35;79.37
76998;BME280;65930;48.874;10.734;2023-03-26T05:43:44;95185.06;;;5.41;79.41
76998;BME280;65930;48.874;10.734;2023-03-26T05:46:14;95186.59;;;5.39;79.44
76998;BME280;65930;48.874;10.734;2023-03-26T05:48:42;95192.88;;;5.39;80.04
76998;BME280;65930;48.874;10.734;2023-03-26T05:51:11;95194.44;;;5.33;80.20
76998;BME280;65930;48.874;10.734;2023-03-26T05:53:41;95187.78;;;5.38;80.12
76998;BME280;65930;48.874;10.734;2023-03-26T05:56:09;95182.66;;;5.32;80.00
76998;BME280;65930;48.874;10.734;2023-03-26T05:58:37;95187.41;;;5.36;80.47
76998;BME280;65930;48.874;10.734;2023-03-26T06:01:07;95177.25;;;5.50;79.74
76998;BME280;65930;48.874;10.734;2023-03-26T06:03:38;95186.66;;;5.53;79.36
76998;BME280;65930;48.874;10.734;2023-03-26T06:06:07;95191.38;;;5.59;79.77
76998;BME280;65930;48.874;10.734;2023-03-26T06:08:36;95183.94;;;5.60;79.17
76998;BME280;65930;48.874;10.734;2023-03-26T06:11:05;95183.94;;;5.63;79.28
76998;BME280;65930;48.874;10.734;2023-03-26T06:13:33;95182.72;;;5.61;79.90
76998;BME280;65930;48.874;10.734;2023-03-26T06:16:01;95191.38;;;5.63;79.52
76998;BME280;65930;48.874;10.734;2023-03-26T06:18:29;95188.66;;;5.73;78.97
76998;BME280;65930;48.874;10.734;2023-03-26T06:20:58;95180.00;;;5.68;79.22
76998;BME280;65930;48.874;10.734;2023-03-26T06:23:26;95189.03;;;5.79;79.52
76998;BME280;65930;48.874;10.734;2023-03-26T06:25:55;95177.31;;;5.89;78.54
76998;BME280;65930;48.874;10.734;2023-03-26T06:28:24;95181.22;;;5.88;78.79
76998;BME280;65930;48.874;10.734;2023-03-26T06:30:52;95191.84;;;5.93;78.76
76998;BME280;65930;48.874;10.734;2023-03-26T06:33:20;95191.47;;;6.02;78.29
76998;BME280;65930;48.874;10.734;2023-03-26T06:35:50;95181.25;;;6.09;77.95
76998;BME280;65930;48.874;10.734;2023-03-26T06:38:18;95166.72;;;6.23;77.88
76998;BME280;65930;48.874;10.734;2023-03-26T06:40:46;95162.03;;;6.20;77.35
76998;BME280;65930;48.874;10.734;2023-03-26T06:43:15;95155.31;;;6.28;77.53
76998;BME280;65930;48.874;10.734;2023-03-26T06:45:43;95164.34;;;6.22;78.05
76998;BME280;65930;48.874;10.734;2023-03-26T06:48:11;95160.03;;;6.42;77.26
76998;BME280;65930;48.874;10.734;2023-03-26T06:50:39;95137.22;;;6.45;78.33
76998;BME280;65930;48.874;10.734;2023-03-26T06:53:07;95134.88;;;6.43;78.17
76998;BME280;65930;48.874;10.734;2023-03-26T06:55:38;95134.88;;;6.43;78.31
76998;BME280;65930;48.874;10.734;2023-03-26T06:58:05;95131.72;;;6.48;77.78
76998;BME280;65930;48.874;10.734;2023-03-26T07:00:35;95129.72;;;6.49;78.78
76998;BME280;65930;48.874;10.734;2023-03-26T07:03:04;95119.91;;;6.55;78.39
76998;BME280;65930;48.874;10.734;2023-03-26T07:05:32;95122.63;;;6.66;77.98
76998;BME280;65930;48.874;10.734;2023-03-26T07:08:00;95114.38;;;6.66;77.31
76998;BME280;65930;48.874;10.734;2023-03-26T07:10:28;95106.53;;;6.57;77.82
76998;BME280;65930;48.874;10.734;2023-03-26T07:12:56;95104.56;;;6.61;77.99
76998;BME280;65930;48.874;10.734;2023-03-26T07:15:24;95100.66;;;6.55;78.87
76998;BME280;65930;48.874;10.734;2023-03-26T07:17:53;95090.41;;;6.66;77.82
76998;BME280;65930;48.874;10.734;2023-03-26T07:20:22;95086.03;;;6.79;77.23
76998;BME280;65930;48.874;10.734;2023-03-26T07:22:52;95073.47;;;6.71;76.86
76998;BME280;65930;48.874;10.734;2023-03-26T07:25:20;95075.03;;;6.72;77.81
76998;BME280;65930;48.874;10.734;2023-03-26T07:27:59;95069.84;;;6.88;77.54
76998;BME280;65930;48.874;10.734;2023-03-26T07:30:41;95059.25;;;6.83;77.02
76998;BME280;65930;48.874;10.734;2023-03-26T07:33:20;95070.66;;;6.82;77.16
76998;BME280;65930;48.874;10.734;2023-03-26T07:36:01;95064.75;;;6.83;76.23
76998;BME280;65930;48.874;10.734;2023-03-26T07:38:46;95070.28;;;6.80;76.86
76998;BME280;65930;48.874;10.734;2023-03-26T07:41:27;95057.28;;;6.84;77.48
76998;BME280;65930;48.874;10.734;2023-03-26T07:44:11;95057.72;;;6.75;77.99
76998;BME280;65930;48.874;10.734;2023-03-26T07:46:47;95058.94;;;6.67;77.65
76998;BME280;65930;48.874;10.734;2023-03-26T07:49:21;95055.41;;;6.63;78.81
76998;BME280;65930;48.874;10.734;2023-03-26T07:51:49;95046.03;;;6.46;79.66
76998;BME280;65930;48.874;10.734;2023-03-26T07:54:17;95040.91;;;6.55;79.50
76998;BME280;65930;48.874;10.734;2023-03-26T07:56:53;95031.09;;;6.51;79.96
76998;BME280;65930;48.874;10.734;2023-03-26T07:59:30;95038.56;;;6.50;80.92
76998;BME280;65930;48.874;10.734;2023-03-26T08:02:26;95027.97;;;6.42;81.07
76998;BME280;65930;48.874;10.734;2023-03-26T08:05:16;95034.25;;;6.46;80.79
76998;BME280;65930;48.874;10.734;2023-03-26T08:08:01;95031.13;;;6.37;81.84
76998;BME280;65930;48.874;10.734;2023-03-26T08:10:36;95025.63;;;6.40;81.62
76998;BME280;65930;48.874;10.734;2023-03-26T08:13:24;95011.03;;;6.50;80.87
76998;BME280;65930;48.874;10.734;2023-03-26T08:16:04;95007.91;;;6.52;81.15
76998;BME280;65930;48.874;10.734;2023-03-26T08:18:44;94984.84;;;6.25;80.75
76998;BME280;65930;48.874;10.734;2023-03-26T08:21:23;94980.00;;;6.50;80.61
76998;BME280;65930;48.874;10.734;2023-03-26T08:23:59;94980.81;;;6.47;80.65
76998;BME280;65930;48.874;10.734;2023-03-26T08:26:35;94991.81;;;6.47;80.11
76998;BME280;65930;48.874;10.734;2023-03-26T08:29:19;94986.25;;;6.54;80.51
76998;BME280;65930;48.874;10.734;2023-03-26T08:31:53;94969.25;;;6.73;80.30
76998;BME280;65930;48.874;10.734;2023-03-26T08:34:23;94963.06;;;6.62;80.06
76998;BME280;65930;48.874;10.734;2023-03-26T08:36:52;94963.47;;;6.57;81.12
76998;BME280;65930;48.874;10.734;2023-03-26T08:39:20;94959.50;;;6.58;80.77
76998;BME280;65930;48.874;10.734;2023-03-26T08:42:25;94948.88;;;6.67;81.04
76998;BME280;65930;48.874;10.734;2023-03-26T08:48:55;94942.91;;;6.72;80.84
76998;BME280;65930;48.874;10.734;2023-03-26T08:54:45;94931.91;;;6.72;81.08
76998;BME280;65930;48.874;10.734;2023-03-26T09:00:39;94923.66;;;6.72;80.33
76998;BME280;65930;48.874;10.734;2023-03-26T09:03:46;94927.22;;;6.69;80.39
76998;BME280;65930;48.874;10.734;2023-03-26T09:06:52;94931.16;;;6.72;79.44
76998;BME280;65930;48.874;10.734;2023-03-26T09:10:09;94919.41;;;6.64;80.15
76998;BME280;65930;48.874;10.734;2023-03-26T09:13:19;94936.75;;;6.50;80.96
76998;BME280;65930;48.874;10.734;2023-03-26T09:16:24;94936.03;;;6.43;81.02
76998;BME280;65930;48.874;10.734;2023-03-26T09:19:28;94938.34;;;6.51;80.88
76998;BME280;65930;48.874;10.734;2023-03-26T09:22:45;94937.59;;;6.44;81.30
76998;BME280;65930;48.874;10.734;2023-03-26T09:25:46;94940.34;;;6.40;81.39
76998;BME280;65930;48.874;10.734;2023-03-26T09:32:17;94945.41;;;6.52;82.08
76998;BME280;65930;48.874;10.734;2023-03-26T09:35:09;94946.28;;;6.39;82.99
76998;BME280;65930;48.874;10.734;2023-03-26T09:37:56;94945.94;;;6.23;83.94
76998;BME280;65930;48.874;10.734;2023-03-26T09:40:35;94954.19;;;6.23;84.22
76998;BME280;65930;48.874;10.734;2023-03-26T09:43:39;94950.66;;;6.18;84.61
76998;BME280;65930;48.874;10.734;2023-03-26T09:46:21;94946.34;;;6.25;84.17
76998;BME280;65930;48.874;10.734;2023-03-26T09:52:14;94947.91;;;6.18;84.59
76998;BME280;65930;48.874;10.734;2023-03-26T09:58:02;94927.56;;;6.05;85.02
76998;BME280;65930;48.874;10.734;2023-03-26T10:00:40;94943.25;;;6.08;85.01
76998;BME280;65930;48.874;10.734;2023-03-26T10:03:36;94914.88;;;6.26;83.61
76998;BME280;65930;48.874;10.734;2023-03-26T10:06:24;94912.22;;;6.08;84.98
76998;BME280;65930;48.874;10.734;2023-03-26T10:09:06;94921.66;;;6.03;85.13
76998;BME280;65930;48.874;10.734;2023-03-26T10:11:54;94910.63;;;6.07;85.02
76998;BME280;65930;48.874;10.734;2023-03-26T10:14:31;94910.94;;;6.34;85.50
76998;BME280;65930;48.874;10.734;2023-03-26T10:20:10;94899.94;;;6.27;84.54
76998;BME280;65930;48.874;10.734;2023-03-26T10:22:58;94914.09;;;6.29;84.81
76998;BME280;65930;48.874;10.734;2023-03-26T10:28:47;94891.28;;;6.32;84.86
76998;BME280;65930;48.874;10.734;2023-03-26T10:31:45;94884.53;;;6.47;84.95
76998;BME280;65930;48.874;10.734;2023-03-26T10:34:42;94889.28;;;6.36;85.30
76998;BME280;65930;48.874;10.734;2023-03-26T10:37:23;94890.28;;;6.70;84.81
76998;BME280;65930;48.874;10.734;2023-03-26T10:40:13;94881.66;;;6.64;84.87
76998;BME280;65930;48.874;10.734;2023-03-26T10:43:29;94878.44;;;6.73;85.10
76998;BME280;65930;48.874;10.734;2023-03-26T10:46:23;94879.88;;;6.92;84.92
76998;BME280;65930;48.874;10.734;2023-03-26T10:49:28;94872.88;;;6.84;85.26
76998;BME280;65930;48.874;10.734;2023-03-26T10:52:03;94865.78;;;6.83;83.15
76998;BME280;65930;48.874;10.734;2023-03-26T10:54:41;94870.72;;;7.05;83.62
76998;BME280;65930;48.874;10.734;2023-03-26T10:57:28;94867.22;;;7.46;84.31
76998;BME280;65930;48.874;10.734;2023-03-26T11:00:13;94885.59;;;7.56;82.14
76998;BME280;65930;48.874;10.734;2023-03-26T11:02:51;94881.78;;;7.46;82.09
76998;BME280;65930;48.874;10.734;2023-03-26T11:05:45;94876.19;;;7.53;82.31
76998;BME280;65930;48.874;10.734;2023-03-26T11:08:22;94862.94;;;7.41;81.89
76998;BME280;65930;48.874;10.734;2023-03-26T11:11:04;94859.69;;;7.50;81.62
76998;BME280;65930;48.874;10.734;2023-03-26T11:13:49;94862.56;;;7.39;82.06
76998;BME280;65930;48.874;10.734;2023-03-26T11:16:31;94850.25;;;7.51;83.07
76998;BME280;65930;48.874;10.734;2023-03-26T11:19:09;94858.41;;;7.58;81.23
76998;BME280;65930;48.874;10.734;2023-03-26T11:21:50;94858.50;;;7.88;80.98
76998;BME280;65930;48.874;10.734;2023-03-26T11:24:43;94851.22;;;8.02;81.06
76998;BME280;65930;48.874;10.734;2023-03-26T11:27:25;94849.50;;;8.15;80.82
76998;BME280;65930;48.874;10.734;2023-03-26T11:30:06;94845.00;;;7.94;79.67
76998;BME280;65930;48.874;10.734;2023-03-26T11:32:43;94833.38;;;7.79;81.13
76998;BME280;65930;48.874;10.734;2023-03-26T11:35:18;94832.19;;;7.80;81.19
76998;BME280;65930;48.874;10.734;2023-03-26T11:38:15;94834.31;;;7.66;81.31
76998;BME280;65930;48.874;10.734;2023-03-26T11:40:47;94834.31;;;7.66;81.76
76998;BME280;65930;48.874;10.734;2023-03-26T11:43:23;94842.13;;;7.74;81.95
76998;BME280;65930;48.874;10.734;2023-03-26T11:45:52;94840.25;;;7.64;81.98
76998;BME280;65930;48.874;10.734;2023-03-26T11:48:25;94835.66;;;7.88;82.67
76998;BME280;65930;48.874;10.734;2023-03-26T11:51:01;94834.22;;;8.07;81.29
76998;BME280;65930;48.874;10.734;2023-03-26T11:53:35;94831.28;;;8.21;80.56
76998;BME280;65930;48.874;10.734;2023-03-26T11:56:12;94810.13;;;8.41;80.29
76998;BME280;65930;48.874;10.734;2023-03-26T11:58:49;94799.69;;;8.79;79.91
76998;BME280;65930;48.874;10.734;2023-03-26T12:01:23;94796.69;;;9.16;77.75
76998;BME280;65930;48.874;10.734;2023-03-26T12:03:58;94784.78;;;9.82;76.04
76998;BME280;65930;48.874;10.734;2023-03-26T12:06:29;94787.75;;;9.71;73.75
76998;BME280;65930;48.874;10.734;2023-03-26T12:08:59;94788.44;;;9.36;73.94
76998;BME280;65930;48.874;10.734;2023-03-26T12:11:30;94775.34;;;9.40;72.10
76998;BME280;65930;48.874;10.734;2023-03-26T12:14:03;94772.34;;;9.70;73.54
76998;BME280;65930;48.874;10.734;2023-03-26T12:16:33;94765.13;;;9.57;73.39
76998;BME280;65930;48.874;10.734;2023-03-26T12:19:05;94760.44;;;9.34;74.04
76998;BME280;65930;48.874;10.734;2023-03-26T12:21:45;94762.06;;;9.32;74.22
76998;BME280;65930;48.874;10.734;2023-03-26T12:24:26;94762.44;;;9.10;74.26
76998;BME280;65930;48.874;10.734;2023-03-26T12:26:56;94771.44;;;8.95;74.95
76998;BME280;65930;48.874;10.734;2023-03-26T12:29:29;94777.19;;;8.80;77.77
76998;BME280;65930;48.874;10.734;2023-03-26T12:32:05;94780.00;;;8.54;80.26
76998;BME280;65930;48.874;10.734;2023-03-26T12:34:36;94797.16;;;8.08;78.99
76998;BME280;65930;48.874;10.734;2023-03-26T12:37:14;94796.63;;;7.89;78.59
76998;BME280;65930;48.874;10.734;2023-03-26T12:40:07;94797.63;;;7.72;78.05
76998;BME280;65930;48.874;10.734;2023-03-26T12:42:50;94785.91;;;7.95;79.88
76998;BME280;65930;48.874;10.734;2023-03-26T12:45:41;94780.06;;;8.20;78.83
76998;BME280;65930;48.874;10.734;2023-03-26T12:48:12;94761.84;;;8.26;76.81
76998;BME280;65930;48.874;10.734;2023-03-26T12:50:53;94767.19;;;8.63;77.34
76998;BME280;65930;48.874;10.734;2023-03-26T12:53:36;94762.03;;;9.12;79.46
76998;BME280;65930;48.874;10.734;2023-03-26T12:56:18;94748.69;;;9.30;79.61
76998;BME280;65930;48.874;10.734;2023-03-26T12:59:00;94747.66;;;9.20;74.47
76998;BME280;65930;48.874;10.734;2023-03-26T13:01:46;94742.34;;;9.10;76.30
76998;BME280;65930;48.874;10.734;2023-03-26T13:04:41;94746.19;;;9.16;75.87
76998;BME280;65930;48.874;10.734;2023-03-26T13:07:47;94738.47;;;9.27;78.37
76998;BME280;65930;48.874;10.734;2023-03-26T13:10:42;94747.47;;;9.31;79.18
76998;BME280;65930;48.874;10.734;2023-03-26T13:13:42;94738.81;;;9.29;75.81
76998;BME280;65930;48.874;10.734;2023-03-26T13:16:26;94730.63;;;9.45;73.96
76998;BME280;65930;48.874;10.734;2023-03-26T13:19:02;94727.16;;;9.41;75.25
76998;BME280;65930;48.874;10.734;2023-03-26T13:21:50;94718.97;;;9.34;75.24
76998;BME280;65930;48.874;10.734;2023-03-26T13:24:33;94723.81;;;9.30;76.31
76998;BME280;65930;48.874;10.734;2023-03-26T13:27:21;94719.91;;;9.27;75.41
76998;BME280;65930;48.874;10.734;2023-03-26T13:30:01;94710.34;;;9.32;76.92
76998;BME280;65930;48.874;10.734;2023-03-26T13:32:46;94701.34;;;9.28;76.06
76998;BME280;65930;48.874;10.734;2023-03-26T13:35:26;94704.38;;;9.34;75.27
76998;BME280;65930;48.874;10.734;2023-03-26T13:38:08;94692.25;;;9.47;75.18
76998;BME280;65930;48.874;10.734;2023-03-26T13:40:51;94695.16;;;9.80;73.73
76998;BME280;65930;48.874;10.734;2023-03-26T13:43:41;94690.31;;;9.84;74.79
76998;BME280;65930;48.874;10.734;2023-03-26T13:46:24;94680.28;;;9.73;72.88
76998;BME280;65930;48.874;10.734;2023-03-26T13:48:57;94675.44;;;9.78;73.60
76998;BME280;65930;48.874;10.734;2023-03-26T13:51:32;94675.44;;;9.78;74.86
76998;BME280;65930;48.874;10.734;2023-03-26T13:54:12;94669.34;;;9.66;76.06
76998;BME280;65930;48.874;10.734;2023-03-26T13:56:46;94675.03;;;9.59;76.71
76998;BME280;65930;48.874;10.734;2023-03-26T13:59:24;94714.59;;;9.37;73.93
76998;BME280;65930;48.874;10.734;2023-03-26T14:02:00;94711.88;;;8.47;73.51
76998;BME280;65930;48.874;10.734;2023-03-26T14:04:34;94712.41;;;8.12;76.75
76998;BME280;65930;48.874;10.734;2023-03-26T14:07:11;94707.56;;;7.92;77.44
76998;BME280;65930;48.874;10.734;2023-03-26T14:09:46;94716.72;;;7.86;77.98
76998;BME280;65930;48.874;10.734;2023-03-26T14:12:26;94697.34;;;7.89;77.39